sensor_id;sensor_type;location;lat;lon;timestamp;P1;durP1;ratioP1;P2;durP2;ratioP2
34317;SDS011;20582;52.196;20.952;2023-03-23T00:01:09;58.05;;;33.38;;
34317;SDS011;20582;52.196;20.952;2023-03-23T00:03:36;63.33;;;35.08;;
34317;SDS011;20582;52.196;20.952;2023-03-23T00:06:02;62.30;;;33.72;;
34317;SDS011;20582;52.196;20.952;2023-03-23T00:08:32;67.43;;;33.75;;
34317;SDS011;20582;52.196;20.952;2023-03-23T00:10:58;60.78;;;33.60;;
34317;SDS011;20582;52.196;20.952;2023-03-23T00:13:26;63.08;;;34.85;;
34317;SDS011;20582;52.196;20.952;2023-03-23T00:15:52;58.20;;;32.05;;
34317;SDS011;20582;52.196;20.952;2023-03-23T00:18:19;60.65;;;34.00;;
34317;SDS011;20582;52.196;20.952;2023-03-23T00:20:55;61.30;;;33.33;;
34317;SDS011;20582;52.196;20.952;2023-03-23T00:23:23;59.95;;;34.47;;
34317;SDS011;20582;52.196;20.952;2023-03-23T00:25:53;59.58;;;33.65;;
34317;SDS011;20582;52.196;20.952;2023-03-23T00:28:21;56.63;;;32.03;;
34317;SDS011;20582;52.196;20.952;2023-03-23T00:30:56;58.20;;;32.97;;
34317;SDS011;20582;52.196;20.952;2023-03-23T00:33:23;56.72;;;32.33;;
34317;SDS011;20582;52.196;20.952;2023-03-23T00:35:50;56.50;;;31.48;;
34317;SDS011;20582;52.196;20.952;2023-03-23T00:38:17;51.70;;;31.90;;
34317;SDS011;20582;52.196;20.952;2023-03-23T00:40:44;59.22;;;33.35;;
34317;SDS011;20582;52.196;20.952;2023-03-23T00:43:12;59.92;;;33.33;;
34317;SDS011;20582;52.196;20.952;2023-03-23T00:45:38;58.47;;;31.63;;
34317;SDS011;20582;52.196;20.952;2023-03-23T00:48:04;56.20;;;33.20;;
34317;SDS011;20582;52.196;20.952;2023-03-23T00:50:31;59.35;;;33.70;;
34317;SDS011;20582;52.196;20.952;2023-03-23T00:52:57;53.15;;;30.70;;
34317;SDS011;20582;52.196;20.952;2023-03-23T00:55:23;56.58;;;32.47;;
34317;SDS011;20582;52.196;20.952;2023-03-23T00:57:50;57.80;;;32.17;;
34317;SDS011;20582;52.196;20.952;2023-03-23T01:00:16;55.33;;;31.92;;
34317;SDS011;20582;52.196;20.952;2023-03-23T01:02:43;56.58;;;32.17;;
34317;SDS011;20582;52.196;20.952;2023-03-23T01:05:10;56.92;;;32.30;;
34317;SDS011;20582;52.196;20.952;2023-03-23T01:07:36;51.10;;;31.73;;
34317;SDS011;20582;52.196;20.952;2023-03-23T01:10:03;56.60;;;32.03;;
34317;SDS011;20582;52.196;20.952;2023-03-23T01:12:29;57.55;;;32.22;;
34317;SDS011;20582;52.196;20.952;2023-03-23T01:14:55;57.33;;;31.92;;
34317;SDS011;20582;52.196;20.952;2023-03-23T01:17:21;54.95;;;33.22;;
34317;SDS011;20582;52.196;20.952;2023-03-23T01:19:47;55.45;;;32.25;;
34317;SDS011;20582;52.196;20.952;2023-03-23T01:22:13;54.13;;;29.58;;
34317;SDS011;20582;52.196;20.952;2023-03-23T01:24:39;52.17;;;29.95;;
34317;SDS011;20582;52.196;20.952;2023-03-23T01:27:05;53.50;;;31.33;;
34317;SDS011;20582;52.196;20.952;2023-03-23T01:29:35;51.78;;;31.40;;
34317;SDS011;20582;52.196;20.952;2023-03-23T01:32:01;51.75;;;30.80;;
34317;SDS011;20582;52.196;20.952;2023-03-23T01:34:27;53.67;;;33.00;;
34317;SDS011;20582;52.196;20.952;2023-03-23T01:36:53;56.22;;;32.10;;
34317;SDS011;20582;52.196;20.952;2023-03-23T01:39:19;56.47;;;31.65;;
34317;SDS011;20582;52.196;20.952;2023-03-23T01:41:45;60.47;;;33.42;;
34317;SDS011;20582;52.196;20.952;2023-03-23T01:46:44;49.58;;;30.20;;
34317;SDS011;20582;52.196;20.952;2023-03-23T01:51:37;50.20;;;29.95;;
34317;SDS011;20582;52.196;20.952;2023-03-23T01:54:06;57.03;;;31.17;;
34317;SDS011;20582;52.196;20.952;2023-03-23T01:56:36;53.08;;;30.48;;
34317;SDS011;20582;52.196;20.952;2023-03-23T01:59:05;53.08;;;30.83;;
34317;SDS011;20582;52.196;20.952;2023-03-23T02:01:32;52.03;;;29.17;;
34317;SDS011;20582;52.196;20.952;2023-03-23T02:04:01;51.38;;;30.73;;
34317;SDS011;20582;52.196;20.952;2023-03-23T02:06:28;48.30;;;28.83;;
34317;SDS011;20582;52.196;20.952;2023-03-23T02:08:54;48.83;;;29.35;;
34317;SDS011;20582;52.196;20.952;2023-03-23T02:11:21;49.55;;;29.48;;
34317;SDS011;20582;52.196;20.952;2023-03-23T02:13:47;51.00;;;28.83;;
34317;SDS011;20582;52.196;20.952;2023-03-23T02:16:26;50.38;;;28.70;;
34317;SDS011;20582;52.196;20.952;2023-03-23T02:21:54;52.45;;;29.25;;
34317;SDS011;20582;52.196;20.952;2023-03-23T02:34:50;45.33;;;26.75;;
34317;SDS011;20582;52.196;20.952;2023-03-23T02:38:00;46.00;;;25.55;;
34317;SDS011;20582;52.196;20.952;2023-03-23T02:40:06;46.45;;;27.63;;
34317;SDS011;20582;52.196;20.952;2023-03-23T02:42:36;42.92;;;25.63;;
34317;SDS011;20582;52.196;20.952;2023-03-23T02:45:05;44.35;;;25.80;;
34317;SDS011;20582;52.196;20.952;2023-03-23T02:47:32;45.63;;;26.35;;
34317;SDS011;20582;52.196;20.952;2023-03-23T02:50:00;41.22;;;25.65;;
34317;SDS011;20582;52.196;20.952;2023-03-23T02:52:28;43.95;;;24.73;;
34317;SDS011;20582;52.196;20.952;2023-03-23T02:54:55;39.97;;;25.38;;
34317;SDS011;20582;52.196;20.952;2023-03-23T02:57:23;43.05;;;25.10;;
34317;SDS011;20582;52.196;20.952;2023-03-23T02:59:51;44.58;;;24.88;;
34317;SDS011;20582;52.196;20.952;2023-03-23T03:02:17;40.38;;;25.08;;
34317;SDS011;20582;52.196;20.952;2023-03-23T03:04:46;45.85;;;25.15;;
34317;SDS011;20582;52.196;20.952;2023-03-23T03:07:23;48.13;;;25.85;;
34317;SDS011;20582;52.196;20.952;2023-03-23T03:09:54;40.90;;;24.48;;
34317;SDS011;20582;52.196;20.952;2023-03-23T03:12:36;40.83;;;24.60;;
34317;SDS011;20582;52.196;20.952;2023-03-23T03:15:09;39.33;;;23.30;;
34317;SDS011;20582;52.196;20.952;2023-03-23T03:17:39;43.58;;;25.90;;
34317;SDS011;20582;52.196;20.952;2023-03-23T03:20:08;37.92;;;23.40;;
34317;SDS011;20582;52.196;20.952;2023-03-23T03:22:35;39.33;;;23.23;;
34317;SDS011;20582;52.196;20.952;2023-03-23T03:25:03;38.55;;;24.05;;
34317;SDS011;20582;52.196;20.952;2023-03-23T03:27:29;40.47;;;22.52;;
34317;SDS011;20582;52.196;20.952;2023-03-23T03:29:58;39.47;;;23.88;;
34317;SDS011;20582;52.196;20.952;2023-03-23T03:32:34;39.78;;;23.77;;
34317;SDS011;20582;52.196;20.952;2023-03-23T03:35:03;39.35;;;23.52;;
34317;SDS011;20582;52.196;20.952;2023-03-23T03:37:36;40.63;;;23.42;;
34317;SDS011;20582;52.196;20.952;2023-03-23T03:40:07;41.40;;;23.10;;
34317;SDS011;20582;52.196;20.952;2023-03-23T03:42:36;40.05;;;24.23;;
34317;SDS011;20582;52.196;20.952;2023-03-23T03:45:03;41.60;;;24.75;;
34317;SDS011;20582;52.196;20.952;2023-03-23T03:47:29;39.20;;;24.25;;
34317;SDS011;20582;52.196;20.952;2023-03-23T03:49:54;40.38;;;24.45;;
34317;SDS011;20582;52.196;20.952;2023-03-23T03:52:20;40.90;;;21.92;;
34317;SDS011;20582;52.196;20.952;2023-03-23T03:54:46;39.92;;;23.30;;
34317;SDS011;20582;52.196;20.952;2023-03-23T03:57:12;37.60;;;22.58;;
34317;SDS011;20582;52.196;20.952;2023-03-23T03:59:38;42.20;;;24.52;;
34317;SDS011;20582;52.196;20.952;2023-03-23T04:02:05;37.97;;;23.17;;
34317;SDS011;20582;52.196;20.952;2023-03-23T04:04:31;42.30;;;23.70;;
34317;SDS011;20582;52.196;20.952;2023-03-23T04:06:57;44.55;;;26.77;;
34317;SDS011;20582;52.196;20.952;2023-03-23T04:09:23;40.50;;;25.13;;
34317;SDS011;20582;52.196;20.952;2023-03-23T04:11:52;42.25;;;26.17;;
34317;SDS011;20582;52.196;20.952;2023-03-23T04:14:17;41.92;;;24.10;;
34317;SDS011;20582;52.196;20.952;2023-03-23T04:16:43;39.03;;;23.73;;
34317;SDS011;20582;52.196;20.952;2023-03-23T04:19:09;42.35;;;24.08;;
34317;SDS011;20582;52.196;20.952;2023-03-23T04:21:37;39.72;;;23.67;;
34317;SDS011;20582;52.196;20.952;2023-03-23T04:24:03;41.58;;;23.58;;
34317;SDS011;20582;52.196;20.952;2023-03-23T04:26:29;40.05;;;24.75;;
34317;SDS011;20582;52.196;20.952;2023-03-23T04:28:55;43.50;;;24.80;;
34317;SDS011;20582;52.196;20.952;2023-03-23T04:31:24;38.15;;;22.48;;
34317;SDS011;20582;52.196;20.952;2023-03-23T04:33:51;41.25;;;23.00;;
34317;SDS011;20582;52.196;20.952;2023-03-23T04:36:17;41.90;;;23.88;;
34317;SDS011;20582;52.196;20.952;2023-03-23T04:38:43;42.85;;;24.35;;
34317;SDS011;20582;52.196;20.952;2023-03-23T04:41:10;42.58;;;23.20;;
34317;SDS011;20582;52.196;20.952;2023-03-23T04:43:36;45.42;;;24.55;;
34317;SDS011;20582;52.196;20.952;2023-03-23T04:46:06;66.20;;;29.77;;
34317;SDS011;20582;52.196;20.952;2023-03-23T04:48:33;63.67;;;29.55;;
34317;SDS011;20582;52.196;20.952;2023-03-23T04:51:01;60.67;;;28.63;;
34317;SDS011;20582;52.196;20.952;2023-03-23T04:53:28;64.78;;;30.80;;
34317;SDS011;20582;52.196;20.952;2023-03-23T04:55:54;57.78;;;29.13;;
34317;SDS011;20582;52.196;20.952;2023-03-23T04:58:20;55.15;;;28.02;;
34317;SDS011;20582;52.196;20.952;2023-03-23T05:00:49;45.92;;;24.45;;
34317;SDS011;20582;52.196;20.952;2023-03-23T05:03:16;49.38;;;23.25;;
34317;SDS011;20582;52.196;20.952;2023-03-23T05:05:42;35.20;;;20.60;;
34317;SDS011;20582;52.196;20.952;2023-03-23T05:08:12;35.87;;;21.33;;
34317;SDS011;20582;52.196;20.952;2023-03-23T05:10:38;36.13;;;21.20;;
34317;SDS011;20582;52.196;20.952;2023-03-23T05:13:04;37.47;;;22.42;;
34317;SDS011;20582;52.196;20.952;2023-03-23T05:15:30;36.47;;;21.67;;
34317;SDS011;20582;52.196;20.952;2023-03-23T05:17:56;35.78;;;20.73;;
34317;SDS011;20582;52.196;20.952;2023-03-23T05:20:22;37.80;;;22.40;;
34317;SDS011;20582;52.196;20.952;2023-03-23T05:22:49;41.65;;;20.50;;
34317;SDS011;20582;52.196;20.952;2023-03-23T05:25:16;38.35;;;20.83;;
34317;SDS011;20582;52.196;20.952;2023-03-23T05:27:46;34.88;;;21.38;;
34317;SDS011;20582;52.196;20.952;2023-03-23T05:30:17;33.65;;;19.80;;
34317;SDS011;20582;52.196;20.952;2023-03-23T05:32:44;33.22;;;20.52;;
34317;SDS011;20582;52.196;20.952;2023-03-23T05:35:15;35.50;;;20.73;;
34317;SDS011;20582;52.196;20.952;2023-03-23T05:37:42;35.30;;;20.20;;
34317;SDS011;20582;52.196;20.952;2023-03-23T05:40:09;32.40;;;18.92;;
34317;SDS011;20582;52.196;20.952;2023-03-23T05:42:37;33.60;;;20.50;;
34317;SDS011;20582;52.196;20.952;2023-03-23T05:45:05;33.90;;;19.55;;
34317;SDS011;20582;52.196;20.952;2023-03-23T05:47:31;35.15;;;19.75;;
34317;SDS011;20582;52.196;20.952;2023-03-23T05:49:57;35.53;;;19.38;;
34317;SDS011;20582;52.196;20.952;2023-03-23T05:52:24;33.03;;;18.10;;
34317;SDS011;20582;52.196;20.952;2023-03-23T05:54:51;34.42;;;18.60;;
34317;SDS011;20582;52.196;20.952;2023-03-23T05:57:17;34.63;;;18.58;;
34317;SDS011;20582;52.196;20.952;2023-03-23T05:59:46;30.83;;;19.20;;
34317;SDS011;20582;52.196;20.952;2023-03-23T06:02:12;33.10;;;18.80;;
34317;SDS011;20582;52.196;20.952;2023-03-23T06:04:39;32.53;;;18.95;;
34317;SDS011;20582;52.196;20.952;2023-03-23T06:07:06;34.30;;;19.77;;
34317;SDS011;20582;52.196;20.952;2023-03-23T06:09:32;31.65;;;18.00;;
34317;SDS011;20582;52.196;20.952;2023-03-23T06:11:58;31.52;;;19.10;;
34317;SDS011;20582;52.196;20.952;2023-03-23T06:14:24;31.35;;;18.02;;
34317;SDS011;20582;52.196;20.952;2023-03-23T06:16:51;28.02;;;17.88;;
34317;SDS011;20582;52.196;20.952;2023-03-23T06:19:17;31.05;;;18.80;;
34317;SDS011;20582;52.196;20.952;2023-03-23T06:21:43;31.90;;;18.38;;
34317;SDS011;20582;52.196;20.952;2023-03-23T06:24:09;30.55;;;17.55;;
34317;SDS011;20582;52.196;20.952;2023-03-23T06:26:35;31.30;;;18.98;;
34317;SDS011;20582;52.196;20.952;2023-03-23T06:29:03;37.60;;;18.35;;
34317;SDS011;20582;52.196;20.952;2023-03-23T06:31:35;30.50;;;17.70;;
34317;SDS011;20582;52.196;20.952;2023-03-23T06:34:01;35.35;;;17.48;;
34317;SDS011;20582;52.196;20.952;2023-03-23T06:36:27;28.65;;;16.08;;
34317;SDS011;20582;52.196;20.952;2023-03-23T06:38:53;29.38;;;17.67;;
34317;SDS011;20582;52.196;20.952;2023-03-23T06:41:20;26.30;;;16.55;;
34317;SDS011;20582;52.196;20.952;2023-03-23T06:43:46;26.70;;;15.80;;
34317;SDS011;20582;52.196;20.952;2023-03-23T06:46:12;27.85;;;15.40;;
34317;SDS011;20582;52.196;20.952;2023-03-23T06:48:38;24.35;;;15.10;;
34317;SDS011;20582;52.196;20.952;2023-03-23T06:51:04;25.83;;;14.48;;
34317;SDS011;20582;52.196;20.952;2023-03-23T06:53:31;22.15;;;13.57;;
34317;SDS011;20582;52.196;20.952;2023-03-23T06:55:57;22.58;;;13.18;;
34317;SDS011;20582;52.196;20.952;2023-03-23T06:58:23;22.20;;;13.85;;
34317;SDS011;20582;52.196;20.952;2023-03-23T07:00:58;23.05;;;14.05;;
34317;SDS011;20582;52.196;20.952;2023-03-23T07:03:24;21.15;;;13.95;;
34317;SDS011;20582;52.196;20.952;2023-03-23T07:05:51;23.80;;;14.65;;
34317;SDS011;20582;52.196;20.952;2023-03-23T07:08:17;26.60;;;14.77;;
34317;SDS011;20582;52.196;20.952;2023-03-23T07:10:43;29.80;;;14.82;;
34317;SDS011;20582;52.196;20.952;2023-03-23T07:13:09;29.35;;;17.00;;
34317;SDS011;20582;52.196;20.952;2023-03-23T07:15:35;27.90;;;14.98;;
34317;SDS011;20582;52.196;20.952;2023-03-23T07:18:02;23.80;;;14.25;;
34317;SDS011;20582;52.196;20.952;2023-03-23T07:20:28;22.85;;;13.23;;
34317;SDS011;20582;52.196;20.952;2023-03-23T07:22:54;22.52;;;13.80;;
34317;SDS011;20582;52.196;20.952;2023-03-23T07:25:20;19.73;;;12.55;;
34317;SDS011;20582;52.196;20.952;2023-03-23T07:27:46;25.33;;;12.38;;
34317;SDS011;20582;52.196;20.952;2023-03-23T07:30:12;21.85;;;13.43;;
34317;SDS011;20582;52.196;20.952;2023-03-23T07:32:39;21.40;;;12.13;;
34317;SDS011;20582;52.196;20.952;2023-03-23T07:35:06;20.20;;;12.32;;
34317;SDS011;20582;52.196;20.952;2023-03-23T07:37:32;22.15;;;12.38;;
34317;SDS011;20582;52.196;20.952;2023-03-23T07:39:58;20.15;;;12.15;;
34317;SDS011;20582;52.196;20.952;2023-03-23T07:42:24;26.80;;;12.80;;
34317;SDS011;20582;52.196;20.952;2023-03-23T07:44:50;23.63;;;11.98;;
34317;SDS011;20582;52.196;20.952;2023-03-23T07:47:16;19.95;;;12.05;;
34317;SDS011;20582;52.196;20.952;2023-03-23T07:49:45;20.63;;;11.15;;
34317;SDS011;20582;52.196;20.952;2023-03-23T07:52:11;19.70;;;11.25;;
34317;SDS011;20582;52.196;20.952;2023-03-23T07:54:37;23.77;;;11.82;;
34317;SDS011;20582;52.196;20.952;2023-03-23T07:57:04;20.67;;;11.68;;
34317;SDS011;20582;52.196;20.952;2023-03-23T07:59:31;18.83;;;10.90;;
34317;SDS011;20582;52.196;20.952;2023-03-23T08:01:57;22.20;;;11.45;;
34317;SDS011;20582;52.196;20.952;2023-03-23T08:04:23;18.75;;;10.73;;
34317;SDS011;20582;52.196;20.952;2023-03-23T08:06:49;18.65;;;10.20;;
34317;SDS011;20582;52.196;20.952;2023-03-23T08:09:15;18.38;;;10.27;;
34317;SDS011;20582;52.196;20.952;2023-03-23T08:11:41;21.42;;;9.80;;
34317;SDS011;20582;52.196;20.952;2023-03-23T08:14:08;19.08;;;10.65;;
34317;SDS011;20582;52.196;20.952;2023-03-23T08:16:34;18.70;;;10.35;;
34317;SDS011;20582;52.196;20.952;2023-03-23T08:19:00;18.65;;;10.18;;
34317;SDS011;20582;52.196;20.952;2023-03-23T08:21:27;19.13;;;10.02;;
34317;SDS011;20582;52.196;20.952;2023-03-23T08:23:53;16.05;;;9.18;;
34317;SDS011;20582;52.196;20.952;2023-03-23T08:26:19;19.63;;;9.32;;
34317;SDS011;20582;52.196;20.952;2023-03-23T08:28:46;16.67;;;9.00;;
34317;SDS011;20582;52.196;20.952;2023-03-23T08:31:13;18.67;;;8.85;;
34317;SDS011;20582;52.196;20.952;2023-03-23T08:33:39;17.42;;;9.23;;
34317;SDS011;20582;52.196;20.952;2023-03-23T08:36:06;16.27;;;9.13;;
34317;SDS011;20582;52.196;20.952;2023-03-23T08:38:32;17.48;;;8.75;;
34317;SDS011;20582;52.196;20.952;2023-03-23T08:41:00;17.70;;;8.77;;
34317;SDS011;20582;52.196;20.952;2023-03-23T08:43:27;16.50;;;7.88;;
34317;SDS011;20582;52.196;20.952;2023-03-23T08:45:53;14.05;;;7.88;;
34317;SDS011;20582;52.196;20.952;2023-03-23T08:48:20;13.27;;;7.47;;
34317;SDS011;20582;52.196;20.952;2023-03-23T08:50:46;15.50;;;7.75;;
34317;SDS011;20582;52.196;20.952;2023-03-23T08:53:13;14.30;;;8.07;;
34317;SDS011;20582;52.196;20.952;2023-03-23T08:55:39;15.20;;;7.43;;
34317;SDS011;20582;52.196;20.952;2023-03-23T08:58:05;12.15;;;6.88;;
34317;SDS011;20582;52.196;20.952;2023-03-23T09:00:31;15.93;;;7.25;;
34317;SDS011;20582;52.196;20.952;2023-03-23T09:02:58;13.27;;;6.78;;
34317;SDS011;20582;52.196;20.952;2023-03-23T09:05:26;13.25;;;6.70;;
34317;SDS011;20582;52.196;20.952;2023-03-23T09:07:53;15.45;;;6.57;;
34317;SDS011;20582;52.196;20.952;2023-03-23T09:10:20;15.88;;;6.93;;
34317;SDS011;20582;52.196;20.952;2023-03-23T09:12:47;14.15;;;6.70;;
34317;SDS011;20582;52.196;20.952;2023-03-23T09:15:14;11.77;;;6.57;;
34317;SDS011;20582;52.196;20.952;2023-03-23T09:17:42;13.32;;;6.90;;
34317;SDS011;20582;52.196;20.952;2023-03-23T09:20:09;16.63;;;6.82;;
34317;SDS011;20582;52.196;20.952;2023-03-23T09:22:37;11.48;;;6.13;;
34317;SDS011;20582;52.196;20.952;2023-03-23T09:25:04;12.77;;;6.90;;
34317;SDS011;20582;52.196;20.952;2023-03-23T09:27:30;12.35;;;5.85;;
34317;SDS011;20582;52.196;20.952;2023-03-23T09:29:56;13.45;;;6.57;;
34317;SDS011;20582;52.196;20.952;2023-03-23T09:32:23;10.20;;;5.40;;
34317;SDS011;20582;52.196;20.952;2023-03-23T09:34:49;12.00;;;5.43;;
34317;SDS011;20582;52.196;20.952;2023-03-23T09:37:16;12.10;;;5.97;;
34317;SDS011;20582;52.196;20.952;2023-03-23T09:39:42;17.75;;;6.13;;
34317;SDS011;20582;52.196;20.952;2023-03-23T09:49:59;10.88;;;5.43;;
34317;SDS011;20582;52.196;20.952;2023-03-23T09:55:07;13.25;;;6.05;;
34317;SDS011;20582;52.196;20.952;2023-03-23T09:57:44;9.52;;;5.75;;
34317;SDS011;20582;52.196;20.952;2023-03-23T10:02:41;12.05;;;6.63;;
34317;SDS011;20582;52.196;20.952;2023-03-23T10:07:39;11.10;;;6.28;;
34317;SDS011;20582;52.196;20.952;2023-03-23T10:10:08;14.50;;;6.43;;
34317;SDS011;20582;52.196;20.952;2023-03-23T10:12:41;11.50;;;6.15;;
34317;SDS011;20582;52.196;20.952;2023-03-23T10:17:41;11.13;;;5.80;;
34317;SDS011;20582;52.196;20.952;2023-03-23T10:22:40;10.25;;;6.22;;
34317;SDS011;20582;52.196;20.952;2023-03-23T10:25:14;13.25;;;6.10;;
34317;SDS011;20582;52.196;20.952;2023-03-23T10:30:27;9.98;;;5.40;;
34317;SDS011;20582;52.196;20.952;2023-03-23T10:33:01;11.45;;;5.53;;
34317;SDS011;20582;52.196;20.952;2023-03-23T10:35:29;10.65;;;5.65;;
34317;SDS011;20582;52.196;20.952;2023-03-23T10:38:02;8.07;;;4.57;;
34317;SDS011;20582;52.196;20.952;2023-03-23T10:40:30;9.15;;;5.05;;
34317;SDS011;20582;52.196;20.952;2023-03-23T10:42:58;12.80;;;5.60;;
34317;SDS011;20582;52.196;20.952;2023-03-23T10:45:25;10.73;;;4.85;;
34317;SDS011;20582;52.196;20.952;2023-03-23T10:48:03;10.55;;;4.85;;
34317;SDS011;20582;52.196;20.952;2023-03-23T10:50:34;10.93;;;5.35;;
34317;SDS011;20582;52.196;20.952;2023-03-23T10:53:00;9.98;;;5.38;;
34317;SDS011;20582;52.196;20.952;2023-03-23T10:55:38;10.45;;;6.28;;
34317;SDS011;20582;52.196;20.952;2023-03-23T10:58:10;14.55;;;5.90;;
34317;SDS011;20582;52.196;20.952;2023-03-23T11:00:40;10.85;;;5.40;;
34317;SDS011;20582;52.196;20.952;2023-03-23T11:03:20;11.25;;;6.05;;
34317;SDS011;20582;52.196;20.952;2023-03-23T11:05:59;14.00;;;5.68;;
34317;SDS011;20582;52.196;20.952;2023-03-23T11:08:26;11.35;;;5.57;;
34317;SDS011;20582;52.196;20.952;2023-03-23T11:10:55;14.20;;;5.55;;
34317;SDS011;20582;52.196;20.952;2023-03-23T11:13:23;14.38;;;5.85;;
34317;SDS011;20582;52.196;20.952;2023-03-23T11:18:24;11.38;;;5.32;;
34317;SDS011;20582;52.196;20.952;2023-03-23T11:20:54;11.05;;;5.95;;
34317;SDS011;20582;52.196;20.952;2023-03-23T11:23:29;12.15;;;5.88;;
34317;SDS011;20582;52.196;20.952;2023-03-23T11:26:00;10.30;;;5.20;;
34317;SDS011;20582;52.196;20.952;2023-03-23T11:30:53;7.80;;;3.72;;
34317;SDS011;20582;52.196;20.952;2023-03-23T11:33:19;5.15;;;2.20;;
34317;SDS011;20582;52.196;20.952;2023-03-23T11:35:45;9.15;;;2.95;;
34317;SDS011;20582;52.196;20.952;2023-03-23T11:38:18;9.43;;;3.20;;
34317;SDS011;20582;52.196;20.952;2023-03-23T11:40:50;13.43;;;3.88;;
34317;SDS011;20582;52.196;20.952;2023-03-23T11:43:20;6.97;;;3.38;;
34317;SDS011;20582;52.196;20.952;2023-03-23T11:48:21;7.97;;;3.72;;
34317;SDS011;20582;52.196;20.952;2023-03-23T11:53:37;6.82;;;3.35;;
34317;SDS011;20582;52.196;20.952;2023-03-23T11:56:11;7.05;;;3.22;;
34317;SDS011;20582;52.196;20.952;2023-03-23T11:58:38;7.55;;;3.20;;
34317;SDS011;20582;52.196;20.952;2023-03-23T12:01:06;7.70;;;2.78;;
34317;SDS011;20582;52.196;20.952;2023-03-23T12:03:56;7.07;;;2.80;;
34317;SDS011;20582;52.196;20.952;2023-03-23T12:06:46;6.40;;;2.75;;
34317;SDS011;20582;52.196;20.952;2023-03-23T12:14:19;8.25;;;2.88;;
34317;SDS011;20582;52.196;20.952;2023-03-23T12:19:16;6.28;;;2.90;;
34317;SDS011;20582;52.196;20.952;2023-03-23T12:26:41;9.75;;;3.08;;
34317;SDS011;20582;52.196;20.952;2023-03-23T12:44:48;15.50;;;4.80;;
34317;SDS011;20582;52.196;20.952;2023-03-23T12:49:48;10.60;;;4.60;;
34317;SDS011;20582;52.196;20.952;2023-03-23T12:52:26;12.02;;;4.95;;
34317;SDS011;20582;52.196;20.952;2023-03-23T12:54:56;7.45;;;4.10;;
34317;SDS011;20582;52.196;20.952;2023-03-23T12:57:40;9.80;;;4.85;;
34317;SDS011;20582;52.196;20.952;2023-03-23T13:00:17;11.50;;;5.15;;
34317;SDS011;20582;52.196;20.952;2023-03-23T13:03:09;12.35;;;5.20;;
34317;SDS011;20582;52.196;20.952;2023-03-23T13:05:36;11.13;;;5.07;;
34317;SDS011;20582;52.196;20.952;2023-03-23T13:08:05;12.40;;;4.75;;
34317;SDS011;20582;52.196;20.952;2023-03-23T13:10:34;13.70;;;5.20;;
34317;SDS011;20582;52.196;20.952;2023-03-23T13:13:01;9.75;;;4.97;;
34317;SDS011;20582;52.196;20.952;2023-03-23T13:15:37;9.05;;;4.55;;
34317;SDS011;20582;52.196;20.952;2023-03-23T13:18:13;12.13;;;4.85;;
34317;SDS011;20582;52.196;20.952;2023-03-23T13:20:51;15.63;;;4.70;;
34317;SDS011;20582;52.196;20.952;2023-03-23T13:23:28;11.18;;;4.97;;
34317;SDS011;20582;52.196;20.952;2023-03-23T13:26:08;8.38;;;4.57;;
34317;SDS011;20582;52.196;20.952;2023-03-23T13:28:50;10.55;;;4.70;;
34317;SDS011;20582;52.196;20.952;2023-03-23T13:31:20;10.18;;;4.57;;
34317;SDS011;20582;52.196;20.952;2023-03-23T13:33:50;12.25;;;5.00;;
34317;SDS011;20582;52.196;20.952;2023-03-23T13:36:25;8.50;;;4.22;;
34317;SDS011;20582;52.196;20.952;2023-03-23T13:38:51;9.55;;;4.45;;
34317;SDS011;20582;52.196;20.952;2023-03-23T13:41:18;8.98;;;4.30;;
34317;SDS011;20582;52.196;20.952;2023-03-23T13:43:45;9.25;;;4.00;;
34317;SDS011;20582;52.196;20.952;2023-03-23T13:48:41;9.00;;;3.70;;
34317;SDS011;20582;52.196;20.952;2023-03-23T13:51:23;9.52;;;3.70;;
34317;SDS011;20582;52.196;20.952;2023-03-23T13:53:50;14.95;;;3.65;;
34317;SDS011;20582;52.196;20.952;2023-03-23T13:59:04;8.35;;;3.40;;
34317;SDS011;20582;52.196;20.952;2023-03-23T14:01:39;8.05;;;3.40;;
34317;SDS011;20582;52.196;20.952;2023-03-23T14:04:07;8.07;;;3.58;;
34317;SDS011;20582;52.196;20.952;2023-03-23T14:06:36;10.50;;;3.72;;
34317;SDS011;20582;52.196;20.952;2023-03-23T14:09:26;12.45;;;4.00;;
34317;SDS011;20582;52.196;20.952;2023-03-23T14:11:50;10.98;;;3.70;;
34317;SDS011;20582;52.196;20.952;2023-03-23T14:14:24;8.07;;;3.85;;
34317;SDS011;20582;52.196;20.952;2023-03-23T14:16:51;9.10;;;3.97;;
34317;SDS011;20582;52.196;20.952;2023-03-23T14:19:21;9.98;;;3.90;;
34317;SDS011;20582;52.196;20.952;2023-03-23T14:21:49;15.33;;;4.23;;
34317;SDS011;20582;52.196;20.952;2023-03-23T14:24:16;11.68;;;4.50;;
34317;SDS011;20582;52.196;20.952;2023-03-23T14:26:43;17.70;;;4.88;;
34317;SDS011;20582;52.196;20.952;2023-03-23T14:29:11;10.30;;;4.90;;
34317;SDS011;20582;52.196;20.952;2023-03-23T14:31:37;14.40;;;5.18;;
34317;SDS011;20582;52.196;20.952;2023-03-23T14:34:05;11.48;;;4.75;;
34317;SDS011;20582;52.196;20.952;2023-03-23T14:36:36;11.82;;;4.85;;
34317;SDS011;20582;52.196;20.952;2023-03-23T14:39:06;12.10;;;5.22;;
34317;SDS011;20582;52.196;20.952;2023-03-23T14:41:33;10.53;;;4.43;;
34317;SDS011;20582;52.196;20.952;2023-03-23T14:44:00;9.50;;;4.47;;
34317;SDS011;20582;52.196;20.952;2023-03-23T14:46:26;10.20;;;4.22;;
34317;SDS011;20582;52.196;20.952;2023-03-23T14:48:53;11.35;;;4.90;;
34317;SDS011;20582;52.196;20.952;2023-03-23T14:51:19;9.98;;;5.22;;
34317;SDS011;20582;52.196;20.952;2023-03-23T14:53:46;10.15;;;5.43;;
34317;SDS011;20582;52.196;20.952;2023-03-23T14:56:17;11.40;;;4.72;;
34317;SDS011;20582;52.196;20.952;2023-03-23T14:58:43;10.27;;;5.10;;
34317;SDS011;20582;52.196;20.952;2023-03-23T15:01:10;12.35;;;5.50;;
34317;SDS011;20582;52.196;20.952;2023-03-23T15:03:38;10.65;;;5.13;;
34317;SDS011;20582;52.196;20.952;2023-03-23T15:06:08;10.95;;;5.30;;
34317;SDS011;20582;52.196;20.952;2023-03-23T15:08:35;13.32;;;5.88;;
34317;SDS011;20582;52.196;20.952;2023-03-23T15:11:04;8.85;;;4.60;;
34317;SDS011;20582;52.196;20.952;2023-03-23T15:13:31;12.55;;;5.40;;
34317;SDS011;20582;52.196;20.952;2023-03-23T15:16:01;13.15;;;5.35;;
34317;SDS011;20582;52.196;20.952;2023-03-23T15:18:37;11.93;;;5.70;;
34317;SDS011;20582;52.196;20.952;2023-03-23T15:21:08;11.57;;;6.03;;
34317;SDS011;20582;52.196;20.952;2023-03-23T15:23:34;13.10;;;5.45;;
34317;SDS011;20582;52.196;20.952;2023-03-23T15:26:06;11.70;;;5.63;;
34317;SDS011;20582;52.196;20.952;2023-03-23T15:28:32;11.68;;;5.20;;
34317;SDS011;20582;52.196;20.952;2023-03-23T15:31:05;10.85;;;5.80;;
34317;SDS011;20582;52.196;20.952;2023-03-23T15:33:35;11.25;;;5.28;;
34317;SDS011;20582;52.196;20.952;2023-03-23T15:36:05;14.32;;;5.65;;
34317;SDS011;20582;52.196;20.952;2023-03-23T15:38:32;12.02;;;5.80;;
34317;SDS011;20582;52.196;20.952;2023-03-23T15:40:59;12.30;;;5.82;;
34317;SDS011;20582;52.196;20.952;2023-03-23T15:43:32;10.25;;;5.50;;
34317;SDS011;20582;52.196;20.952;2023-03-23T15:46:00;11.20;;;5.68;;
34317;SDS011;20582;52.196;20.952;2023-03-23T15:48:30;12.05;;;5.60;;
34317;SDS011;20582;52.196;20.952;2023-03-23T15:50:57;12.10;;;5.72;;